Southampton, Canada
Current Conditions -  °F | °C
As of 3:00 PM on Sunday 21 Dec 2014 (Local Time) from CYVV Reporting Station
Overcast Overcast  
Wind Chill: 23°   Ceiling: 3500
Heat Index: 30°   Visibility: 15mi
Dew Point: 25°   Wind: 8mph
Humidity: 80%   Direction: 170°S
Pressure: 30.24"   Gusts: NA
Location:  44.5°N, 81.37°W
Report Text: CYVV 212000Z 17007KT 15SM OVC035 M01/M04 A3024 RMK SC8 SLP251
Loading
Personal Weather Stations






























Interactive Weather Map New forecast layout! Learn more

10-Day Weather Forecast

Advertisements
Track Severe Weather on mobile